createdAt,value
2018-09-04T00:00:04.239Z,18.90
2018-09-04T00:02:31.862Z,19.14
2018-09-04T00:04:59.453Z,19.16
2018-09-04T00:07:26.984Z,18.97
2018-09-04T00:09:54.545Z,18.91
2018-09-04T00:12:24.237Z,19.11
2018-09-04T00:14:51.863Z,19.06
2018-09-04T00:17:19.393Z,19.08
2018-09-04T00:19:46.937Z,19.09
2018-09-04T00:22:14.659Z,19.10
2018-09-04T00:24:42.178Z,19.12
2018-09-04T00:27:09.767Z,19.01
2018-09-04T00:29:37.768Z,19.05
2018-09-04T00:32:05.337Z,19.03
2018-09-04T00:34:38.640Z,19.00
2018-09-04T00:37:06.229Z,18.87
2018-09-04T00:39:33.784Z,18.75
2018-09-04T00:42:01.301Z,18.78
2018-09-04T00:44:28.862Z,18.83
2018-09-04T00:46:56.431Z,18.81
2018-09-04T00:49:24.040Z,18.78
2018-09-04T00:51:51.570Z,18.79
2018-09-04T00:54:19.118Z,18.89
2018-09-04T00:56:46.725Z,18.85
2018-09-04T00:59:14.276Z,18.84
2018-09-04T01:01:41.808Z,19.07
2018-09-04T01:04:09.412Z,19.15
2018-09-04T01:06:36.999Z,19.13
2018-09-04T01:09:04.528Z,19.21
2018-09-04T01:11:32.089Z,19.18
2018-09-04T01:14:00.754Z,19.23
2018-09-04T01:16:28.340Z,19.26
2018-09-04T01:18:55.863Z,19.18
2018-09-04T01:21:23.474Z,19.19
2018-09-04T01:23:51.017Z,19.01
2018-09-04T01:26:18.623Z,19.07
2018-09-04T01:28:46.243Z,19.10
2018-09-04T01:31:13.778Z,18.96
2018-09-04T01:33:41.339Z,18.85
2018-09-04T01:36:08.944Z,18.86
2018-09-04T01:38:45.127Z,18.89
2018-09-04T01:41:12.697Z,18.99
2018-09-04T01:43:40.232Z,18.86
2018-09-04T01:46:07.803Z,18.92
2018-09-04T01:48:35.334Z,18.91
2018-09-04T01:51:02.868Z,18.85
2018-09-04T01:53:30.423Z,18.84
2018-09-04T01:55:57.937Z,18.88
2018-09-04T01:58:25.519Z,18.99
2018-09-04T02:00:54.167Z,18.96
2018-09-04T02:03:21.751Z,19.14
2018-09-04T02:05:49.314Z,19.02
2018-09-04T02:08:20.222Z,19.35
2018-09-04T02:10:47.792Z,19.47
2018-09-04T02:13:15.317Z,19.45
2018-09-04T02:15:42.885Z,19.57
2018-09-04T02:18:10.409Z,19.65
2018-09-04T02:20:37.987Z,19.70
2018-09-04T02:23:05.555Z,19.63
2018-09-04T02:25:33.115Z,19.67
2018-09-04T02:28:00.659Z,19.59
2018-09-04T02:30:32.933Z,19.42
2018-09-04T02:33:00.538Z,19.31
2018-09-04T02:35:28.070Z,19.40
2018-09-04T02:37:55.596Z,19.23
2018-09-04T02:40:23.169Z,19.31
2018-09-04T02:42:50.699Z,19.27
2018-09-04T02:45:18.271Z,19.35
2018-09-04T02:47:48.808Z,19.31
2018-09-04T02:50:16.388Z,19.14
2018-09-04T02:52:43.943Z,19.21
2018-09-04T02:55:11.513Z,19.35
2018-09-04T02:57:39.064Z,19.52
2018-09-04T03:00:06.664Z,19.32
2018-09-04T03:02:34.187Z,19.51
2018-09-04T03:05:02.888Z,19.44
2018-09-04T03:07:30.468Z,19.13
2018-09-04T03:09:58.006Z,19.21
2018-09-04T03:12:25.567Z,19.19
2018-09-04T03:14:53.088Z,19.27
2018-09-04T03:17:20.674Z,19.34
2018-09-04T03:19:48.241Z,19.23
2018-09-04T03:22:15.836Z,19.31
2018-09-04T03:24:43.387Z,19.27
2018-09-04T03:27:10.944Z,19.28
2018-09-04T03:29:38.524Z,19.35
2018-09-04T03:32:06.044Z,19.25
2018-09-04T03:34:33.609Z,19.52
2018-09-04T03:37:01.184Z,19.59
2018-09-04T03:39:28.734Z,19.40
2018-09-04T03:41:56.279Z,19.54
2018-09-04T03:44:23.917Z,19.60
2018-09-04T03:46:51.482Z,19.62
2018-09-04T03:49:19.037Z,19.45
2018-09-04T03:51:46.550Z,19.34
2018-09-04T03:54:14.105Z,19.26
2018-09-04T03:56:45.290Z,19.41
2018-09-04T03:59:12.851Z,19.32
2018-09-04T04:01:40.429Z,19.08
2018-09-04T04:04:08.005Z,19.06
2018-09-04T04:06:35.610Z,18.91
2018-09-04T04:09:03.147Z,18.91
2018-09-04T04:11:30.723Z,18.76
2018-09-04T04:14:02.478Z,18.85
2018-09-04T04:16:30.071Z,18.80
2018-09-04T04:18:57.623Z,18.85
2018-09-04T04:21:25.192Z,18.65
2018-09-04T04:23:54.843Z,18.76
2018-09-04T04:26:22.395Z,18.96
2018-09-04T04:28:49.931Z,18.93
2018-09-04T04:31:17.509Z,18.74
2018-09-04T04:33:45.056Z,18.82
2018-09-04T04:36:12.635Z,19.04
2018-09-04T04:38:40.192Z,19.21
2018-09-04T04:41:07.792Z,19.13
2018-09-04T04:43:40.572Z,18.70
2018-09-04T04:46:08.127Z,18.81
2018-09-04T04:48:35.716Z,18.68
2018-09-04T04:51:03.276Z,18.78
2018-09-04T04:53:30.815Z,18.75
2018-09-04T04:55:58.419Z,18.62
2018-09-04T04:58:25.971Z,18.63
2018-09-04T05:00:53.539Z,18.74
2018-09-04T05:03:21.098Z,18.87
2018-09-04T05:05:48.652Z,18.99
2018-09-04T05:08:16.438Z,19.08
2018-09-04T05:10:43.999Z,19.15
2018-09-04T05:13:11.581Z,19.14
2018-09-04T05:15:39.113Z,19.23
2018-09-04T05:18:17.434Z,19.10
2018-09-04T05:20:45.015Z,19.19
2018-09-04T05:23:12.594Z,19.23
2018-09-04T05:25:40.143Z,19.19
2018-09-04T05:28:07.763Z,18.99
2018-09-04T05:30:35.351Z,18.73
2018-09-04T05:33:04.105Z,18.74
2018-09-04T05:35:31.863Z,18.78
2018-09-04T05:37:59.413Z,18.88
2018-09-04T05:40:34.252Z,19.11
2018-09-04T05:43:01.872Z,19.24
2018-09-04T05:45:29.559Z,19.05
2018-09-04T05:47:58.175Z,18.86
2018-09-04T05:50:25.859Z,19.07
2018-09-04T05:52:53.423Z,18.88
2018-09-04T05:55:21.036Z,18.89
2018-09-04T05:57:48.788Z,19.02
2018-09-04T06:00:16.344Z,18.77
2018-09-04T06:02:43.903Z,18.58
2018-09-04T06:05:12.490Z,18.69
2018-09-04T06:07:40.069Z,18.71
2018-09-04T06:10:07.605Z,18.83
2018-09-04T06:12:35.241Z,18.97
2018-09-04T06:15:02.841Z,19.17
2018-09-04T06:17:30.380Z,19.23
2018-09-04T06:20:01.950Z,19.12
2018-09-04T06:22:29.537Z,19.26
2018-09-04T06:24:57.243Z,19.08
2018-09-04T06:27:24.915Z,19.03
2018-09-04T06:29:52.654Z,19.07
2018-09-04T06:32:22.286Z,19.17
2018-09-04T06:34:49.856Z,19.35
2018-09-04T06:37:18.380Z,19.53
2018-09-04T06:39:45.931Z,19.62
2018-09-04T06:42:13.529Z,19.65
2018-09-04T06:44:41.080Z,19.61
2018-09-04T06:47:08.643Z,19.74
2018-09-04T06:49:36.218Z,19.81
2018-09-04T06:52:03.787Z,19.73
2018-09-04T06:54:31.379Z,19.81
2018-09-04T06:56:58.981Z,19.93
2018-09-04T06:59:26.510Z,19.94
2018-09-04T07:01:54.092Z,19.96
2018-09-04T07:04:21.625Z,20.11
2018-09-04T07:06:49.236Z,20.20
2018-09-04T07:09:16.832Z,20.24
2018-09-04T07:11:44.376Z,20.28
2018-09-04T07:14:11.977Z,20.30
2018-09-04T07:16:39.564Z,20.36
2018-09-04T07:19:07.123Z,20.44
2018-09-04T07:21:34.832Z,20.46
2018-09-04T07:24:03.378Z,20.50
2018-09-04T07:26:30.953Z,20.57
2018-09-04T07:28:58.486Z,20.61
2018-09-04T07:31:26.164Z,20.58
2018-09-04T07:33:55.116Z,20.68
2018-09-04T07:36:22.747Z,20.72
2018-09-04T07:38:54.461Z,20.80
2018-09-04T07:41:25.384Z,20.88
2018-09-04T07:43:58.871Z,20.90
2018-09-04T07:46:26.432Z,20.92
2018-09-04T07:48:54.285Z,20.97
2018-09-04T07:51:25.239Z,20.90
2018-09-04T07:53:57.903Z,21.08
2018-09-04T07:56:25.709Z,20.82
2018-09-04T07:58:54.352Z,20.63
2018-09-04T08:01:21.888Z,20.76
2018-09-04T08:04:00.035Z,20.72
2018-09-04T08:06:33.391Z,20.69
2018-09-04T08:09:06.943Z,20.86
2018-09-04T08:11:34.550Z,20.68
2018-09-04T08:14:03.118Z,20.74
2018-09-04T08:16:40.634Z,20.78
2018-09-04T08:19:08.949Z,20.94
2018-09-04T08:21:37.417Z,20.95
2018-09-04T08:24:05.004Z,20.91
2018-09-04T08:26:34.859Z,20.91
2018-09-04T08:29:02.616Z,21.19
2018-09-04T08:31:30.251Z,21.26
2018-09-04T08:33:57.826Z,21.21
2018-09-04T08:36:29.312Z,21.12
2018-09-04T08:39:07.503Z,21.17
2018-09-04T08:41:35.248Z,21.18
2018-09-04T08:44:02.817Z,21.35
2018-09-04T08:46:30.390Z,21.42
2018-09-04T08:49:01.374Z,21.52
2018-09-04T08:51:28.925Z,21.54
2018-09-04T08:53:57.491Z,21.63
2018-09-04T08:56:25.037Z,21.52
2018-09-04T08:58:52.590Z,21.67
2018-09-04T09:01:22.368Z,21.80
2018-09-04T09:03:49.987Z,21.96
2018-09-04T09:06:17.563Z,21.91
2018-09-04T09:08:53.264Z,22.03
2018-09-04T09:11:20.853Z,21.99
2018-09-04T09:13:48.554Z,22.15
2018-09-04T09:16:18.129Z,22.19
2018-09-04T09:18:45.749Z,22.06
2018-09-04T09:21:13.328Z,22.07
2018-09-04T09:23:40.916Z,22.32
2018-09-04T09:26:09.551Z,22.31
2018-09-04T09:28:37.231Z,22.24
2018-09-04T09:31:05.979Z,22.34
2018-09-04T09:33:37.464Z,22.28
2018-09-04T09:36:07.367Z,22.29
2018-09-04T09:38:37.416Z,22.14
2018-09-04T09:41:05.511Z,22.19
2018-09-04T09:43:38.139Z,22.41
2018-09-04T09:46:06.283Z,22.50
2018-09-04T09:48:34.371Z,22.55
2018-09-04T09:51:02.360Z,22.40
2018-09-04T09:53:30.528Z,22.62
2018-09-04T09:55:58.518Z,22.65
2018-09-04T09:58:34.691Z,22.37
2018-09-04T10:01:02.702Z,22.40
2018-09-04T10:03:30.782Z,22.63
2018-09-04T10:06:00.490Z,22.68
2018-09-04T10:08:45.595Z,22.71
2018-09-04T10:11:13.262Z,22.76
2018-09-04T10:13:48.962Z,22.70
2018-09-04T10:16:17.677Z,22.69
2018-09-04T10:18:45.222Z,22.86
2018-09-04T10:21:13.105Z,23.07
2018-09-04T10:23:41.474Z,23.16
2018-09-04T10:26:09.059Z,23.24
2018-09-04T10:28:40.483Z,23.12
2018-09-04T10:31:08.131Z,23.07
2018-09-04T10:33:35.687Z,23.34
2018-09-04T10:36:03.218Z,23.45
2018-09-04T10:38:30.819Z,23.42
2018-09-04T10:40:58.389Z,23.46
2018-09-04T10:43:25.980Z,23.51
2018-09-04T10:45:53.589Z,23.59
2018-09-04T10:48:23.256Z,23.64
2018-09-04T10:50:50.798Z,23.68
2018-09-04T10:53:24.267Z,23.63
2018-09-04T10:55:53.909Z,23.72
2018-09-04T10:58:21.487Z,23.77
2018-09-04T11:00:49.063Z,23.83
2018-09-04T11:03:16.664Z,23.92
2018-09-04T11:05:44.291Z,23.92
2018-09-04T11:08:18.292Z,23.93
2018-09-04T11:10:45.834Z,23.95
2018-09-04T11:13:13.446Z,24.00
2018-09-04T11:15:41.161Z,23.99
2018-09-04T11:18:10.824Z,24.02
2018-09-04T11:20:38.394Z,24.09
2018-09-04T11:23:05.932Z,23.99
2018-09-04T11:25:33.490Z,24.16
2018-09-04T11:28:01.036Z,24.07
2018-09-04T11:30:28.815Z,24.12
2018-09-04T11:32:56.375Z,24.09
2018-09-04T11:35:28.009Z,24.11
2018-09-04T11:38:06.482Z,23.95
2018-09-04T11:40:34.107Z,23.84
2018-09-04T11:43:07.829Z,24.03
2018-09-04T11:45:35.405Z,24.03
2018-09-04T11:48:02.979Z,24.16
2018-09-04T11:50:31.456Z,24.37
2018-09-04T11:52:59.060Z,24.28
2018-09-04T11:55:26.634Z,24.37
2018-09-04T11:58:01.207Z,24.42
2018-09-04T12:00:30.830Z,24.47
2018-09-04T12:03:01.368Z,24.47
2018-09-04T12:05:32.236Z,24.45
2018-09-04T12:08:01.794Z,24.50
2018-09-04T12:10:29.348Z,24.42
2018-09-04T12:12:57.763Z,24.10
2018-09-04T12:15:25.228Z,24.17
2018-09-04T12:17:57.493Z,24.36
2018-09-04T12:20:25.047Z,24.44
2018-09-04T12:22:52.575Z,24.45
2018-09-04T12:25:20.173Z,24.46
2018-09-04T12:27:47.689Z,24.21
2018-09-04T12:30:15.315Z,24.39
2018-09-04T12:32:47.112Z,24.23
2018-09-04T12:35:14.683Z,24.47
2018-09-04T12:37:42.289Z,24.41
2018-09-04T12:40:10.059Z,24.56
2018-09-04T12:42:43.820Z,24.58
2018-09-04T12:45:11.375Z,24.70
2018-09-04T12:47:38.930Z,24.74
2018-09-04T12:50:06.544Z,24.78
2018-09-04T12:52:34.203Z,24.87
2018-09-04T12:55:05.618Z,24.80
2018-09-04T12:57:33.232Z,25.01
2018-09-04T13:00:00.784Z,25.09
2018-09-04T13:02:28.296Z,25.04
2018-09-04T13:04:55.854Z,25.23
2018-09-04T13:07:24.509Z,25.22
2018-09-04T13:09:52.256Z,25.14
2018-09-04T13:12:19.962Z,25.14
2018-09-04T13:14:47.603Z,24.97
2018-09-04T13:17:18.599Z,24.97
2018-09-04T13:19:46.174Z,24.91
2018-09-04T13:22:14.746Z,24.89
2018-09-04T13:24:44.389Z,24.83
2018-09-04T13:27:11.903Z,24.83
2018-09-04T13:29:39.595Z,24.87
2018-09-04T13:32:07.122Z,24.84
2018-09-04T13:34:34.675Z,24.87
2018-09-04T13:37:02.192Z,24.91
2018-09-04T13:39:29.760Z,24.90
2018-09-04T13:41:59.328Z,24.98
2018-09-04T13:44:26.874Z,25.06
2018-09-04T13:46:54.390Z,25.08
2018-09-04T13:49:21.972Z,25.13
2018-09-04T13:51:49.540Z,25.10
2018-09-04T13:54:17.107Z,25.25
2018-09-04T13:56:44.622Z,25.29
2018-09-04T13:59:12.195Z,25.25
2018-09-04T14:01:40.839Z,25.20
2018-09-04T14:04:08.408Z,25.21
2018-09-04T14:06:35.979Z,25.18
2018-09-04T14:09:03.565Z,25.23
2018-09-04T14:11:32.246Z,25.33
2018-09-04T14:13:59.853Z,25.34
2018-09-04T14:16:27.483Z,25.34
2018-09-04T14:18:55.051Z,25.37
2018-09-04T14:21:22.601Z,25.38
2018-09-04T14:23:53.865Z,25.35
2018-09-04T14:26:21.381Z,25.34
2018-09-04T14:29:06.418Z,25.40
2018-09-04T14:31:16.504Z,25.38
2018-09-04T14:33:44.019Z,25.33
2018-09-04T14:36:12.713Z,25.34
2018-09-04T14:38:40.216Z,25.34
2018-09-04T14:41:07.770Z,25.30
2018-09-04T14:43:35.283Z,25.29
2018-09-04T14:46:02.831Z,25.31
2018-09-04T14:48:30.459Z,25.33
2018-09-04T14:50:57.976Z,25.35
2018-09-04T14:53:25.840Z,25.36
2018-09-04T14:55:53.402Z,25.36
2018-09-04T14:58:20.935Z,25.36
2018-09-04T15:00:48.502Z,25.28
2018-09-04T15:03:16.059Z,25.18
2018-09-04T15:05:43.595Z,25.23
2018-09-04T15:08:11.111Z,24.91
2018-09-04T15:10:38.675Z,25.06
2018-09-04T15:13:06.240Z,24.96
2018-09-04T15:15:33.806Z,24.95
2018-09-04T15:18:01.343Z,24.97
2018-09-04T15:20:28.860Z,25.00
2018-09-04T15:22:56.425Z,24.69
2018-09-04T15:25:24.008Z,24.52
2018-09-04T15:27:51.562Z,24.76
2018-09-04T15:30:19.083Z,23.91
2018-09-04T15:32:51.319Z,23.88
2018-09-04T15:35:18.838Z,23.86
2018-09-04T15:37:46.354Z,23.82
2018-09-04T15:40:13.898Z,23.43
2018-09-04T15:42:41.453Z,23.63
2018-09-04T15:45:08.971Z,23.57
2018-09-04T15:47:36.529Z,23.46
2018-09-04T15:50:04.047Z,23.75
2018-09-04T15:52:33.878Z,23.89
2018-09-04T15:55:01.520Z,23.97
2018-09-04T15:57:29.088Z,23.98
2018-09-04T15:59:56.632Z,23.85
2018-09-04T16:02:24.207Z,23.90
2018-09-04T16:04:51.963Z,23.10
2018-09-04T16:07:19.475Z,22.73
2018-09-04T16:09:47.128Z,22.71
2018-09-04T16:12:14.623Z,22.55
2018-09-04T16:14:42.142Z,22.49
2018-09-04T16:17:09.703Z,22.31
2018-09-04T16:19:37.331Z,22.42
2018-09-04T16:22:05.088Z,22.48
2018-09-04T16:24:32.653Z,22.48
2018-09-04T16:27:00.264Z,22.24
2018-09-04T16:29:27.822Z,22.32
2018-09-04T16:31:55.502Z,22.16
2018-09-04T16:34:23.323Z,22.08
2018-09-04T16:36:50.611Z,22.16
2018-09-04T16:39:18.168Z,22.09
2018-09-04T16:41:45.815Z,22.13
2018-09-04T16:44:13.522Z,22.20
2018-09-04T16:46:41.034Z,22.04
2018-09-04T16:49:08.715Z,21.94
2018-09-04T16:51:36.442Z,21.93
2018-09-04T16:54:04.207Z,21.94
2018-09-04T16:56:31.871Z,22.37
2018-09-04T16:58:59.438Z,22.57
2018-09-04T17:01:27.162Z,22.70
2018-09-04T17:03:54.716Z,22.72
2018-09-04T17:06:23.401Z,22.70
2018-09-04T17:08:50.965Z,22.77
2018-09-04T17:11:18.562Z,22.77
2018-09-04T17:13:46.075Z,22.89
2018-09-04T17:16:13.639Z,22.93
2018-09-04T17:18:41.203Z,22.80
2018-09-04T17:21:08.726Z,22.78
2018-09-04T17:23:37.404Z,22.36
2018-09-04T17:26:04.961Z,22.20
2018-09-04T17:28:33.546Z,22.23
2018-09-04T17:31:01.131Z,22.11
2018-09-04T17:33:28.770Z,21.94
2018-09-04T17:35:56.316Z,21.85
2018-09-04T17:38:24.056Z,21.68
2018-09-04T17:40:51.609Z,21.59
2018-09-04T17:43:19.193Z,21.60
2018-09-04T17:45:47.832Z,21.62
2018-09-04T17:48:15.363Z,21.59
2018-09-04T17:50:43.132Z,21.63
2018-09-04T17:53:10.898Z,21.62
2018-09-04T17:55:38.655Z,21.58
2018-09-04T17:58:06.202Z,21.64
2018-09-04T18:00:34.001Z,21.60
2018-09-04T18:03:01.733Z,21.59
2018-09-04T18:05:29.488Z,21.47
2018-09-04T18:07:57.051Z,21.37
2018-09-04T18:10:24.612Z,21.56
2018-09-04T18:12:52.235Z,21.66
2018-09-04T18:15:19.774Z,21.40
2018-09-04T18:17:47.331Z,21.39
2018-09-04T18:20:14.847Z,21.60
2018-09-04T18:22:42.576Z,21.38
2018-09-04T18:25:10.228Z,21.51
2018-09-04T18:27:38.680Z,21.46
2018-09-04T18:30:06.236Z,21.53
2018-09-04T18:32:33.893Z,21.47
2018-09-04T18:35:01.440Z,21.44
2018-09-04T18:37:29.356Z,21.54
2018-09-04T18:39:56.932Z,21.73
2018-09-04T18:42:24.682Z,21.91
2018-09-04T18:44:52.643Z,21.92
2018-09-04T18:47:20.187Z,21.95
2018-09-04T18:49:47.746Z,22.14
2018-09-04T18:52:15.409Z,22.17
2018-09-04T18:54:42.956Z,22.22
2018-09-04T18:57:10.518Z,22.28
2018-09-04T18:59:38.149Z,22.32
2018-09-04T19:02:05.989Z,22.37
2018-09-04T19:04:33.516Z,22.30
2018-09-04T19:07:01.149Z,22.24
2018-09-04T19:09:28.926Z,22.09
2018-09-04T19:11:56.476Z,22.15
2018-09-04T19:14:24.060Z,22.33
2018-09-04T19:16:51.677Z,22.30
2018-09-04T19:19:19.218Z,22.38
2018-09-04T19:21:46.769Z,22.31
2018-09-04T19:24:14.442Z,22.27
2018-09-04T19:26:41.939Z,22.15
2018-09-04T19:29:09.458Z,22.01
2018-09-04T19:31:37.039Z,21.86
2018-09-04T19:34:04.733Z,22.08
2018-09-04T19:36:32.336Z,21.79
2018-09-04T19:39:00.011Z,22.02
2018-09-04T19:41:27.683Z,22.16
2018-09-04T19:43:55.225Z,22.23
2018-09-04T19:46:24.042Z,22.26
2018-09-04T19:48:51.606Z,22.23
2018-09-04T19:51:19.209Z,22.33
2018-09-04T19:53:46.731Z,22.10
2018-09-04T19:56:14.327Z,22.17
2018-09-04T19:58:41.868Z,21.97
2018-09-04T20:01:09.841Z,22.05
2018-09-04T20:03:37.768Z,21.79
2018-09-04T20:06:05.365Z,21.66
2018-09-04T20:08:32.942Z,21.50
2018-09-04T20:11:01.533Z,21.44
2018-09-04T20:13:29.139Z,21.46
2018-09-04T20:15:56.685Z,21.38
2018-09-04T20:18:24.221Z,21.41
2018-09-04T20:20:52.927Z,21.55
2018-09-04T20:23:20.473Z,21.50
2018-09-04T20:25:48.119Z,21.52
2018-09-04T20:28:15.727Z,21.46
2018-09-04T20:30:43.274Z,21.43
2018-09-04T20:33:10.850Z,21.28
2018-09-04T20:35:38.420Z,21.36
2018-09-04T20:38:06.049Z,21.45
2018-09-04T20:40:33.685Z,21.33
2018-09-04T20:43:01.282Z,21.28
2018-09-04T20:45:28.865Z,21.20
2018-09-04T20:47:56.449Z,21.12
2018-09-04T20:50:24.063Z,21.08
2018-09-04T20:52:51.681Z,21.10
2018-09-04T20:55:19.474Z,21.02
2018-09-04T20:57:58.781Z,21.05
2018-09-04T21:00:38.043Z,21.04
2018-09-04T21:03:17.348Z,20.99
2018-09-04T21:05:56.591Z,20.72
2018-09-04T21:08:24.140Z,20.95
2018-09-04T21:10:51.687Z,21.11
2018-09-04T21:13:19.272Z,20.93
2018-09-04T21:15:46.830Z,21.05
2018-09-04T21:18:14.393Z,20.98
2018-09-04T21:20:41.910Z,20.94
2018-09-04T21:23:09.502Z,20.78
2018-09-04T21:25:37.040Z,21.00
2018-09-04T21:28:04.653Z,21.08
2018-09-04T21:30:34.257Z,21.06
2018-09-04T21:33:01.852Z,21.18
2018-09-04T21:35:29.525Z,21.08
2018-09-04T21:37:58.407Z,21.10
2018-09-04T21:40:26.002Z,21.38
2018-09-04T21:42:53.596Z,21.45
2018-09-04T21:45:21.143Z,21.44
2018-09-04T21:47:48.754Z,21.16
2018-09-04T21:50:16.906Z,21.21
2018-09-04T21:52:44.772Z,21.44
2018-09-04T21:55:13.498Z,21.56
2018-09-04T21:57:41.079Z,21.39
2018-09-04T22:00:08.845Z,21.45
2018-09-04T22:02:36.408Z,21.59
2018-09-04T22:05:04.007Z,21.63
2018-09-04T22:07:31.715Z,21.72
2018-09-04T22:09:59.509Z,21.62
2018-09-04T22:12:27.053Z,21.50
2018-09-04T22:14:54.630Z,21.67
2018-09-04T22:17:22.207Z,21.76
2018-09-04T22:19:49.758Z,21.80
2018-09-04T22:22:17.368Z,21.79
2018-09-04T22:24:44.901Z,21.83
2018-09-04T22:27:12.493Z,21.86
2018-09-04T22:29:40.054Z,21.90
2018-09-04T22:32:07.608Z,21.94
2018-09-04T22:34:35.133Z,21.79
2018-09-04T22:37:02.778Z,21.58
2018-09-04T22:39:30.388Z,21.56
2018-09-04T22:41:57.920Z,21.48
2018-09-04T22:44:25.501Z,21.37
2018-09-04T22:46:53.064Z,21.39
2018-09-04T22:49:20.673Z,21.51
2018-09-04T22:51:48.223Z,21.57
2018-09-04T22:54:15.744Z,21.68
2018-09-04T22:56:43.304Z,21.75
2018-09-04T22:59:10.837Z,21.70
2018-09-04T23:01:38.468Z,21.76
2018-09-04T23:04:06.007Z,21.79
2018-09-04T23:06:34.851Z,21.79
2018-09-04T23:09:02.447Z,21.78
2018-09-04T23:11:30.016Z,21.82
2018-09-04T23:13:57.561Z,21.83
2018-09-04T23:16:25.122Z,21.84
2018-09-04T23:18:52.716Z,21.83
2018-09-04T23:21:20.340Z,21.71
2018-09-04T23:23:47.904Z,21.83
2018-09-04T23:26:15.533Z,21.87
2018-09-04T23:28:43.144Z,21.85
2018-09-04T23:31:10.706Z,21.79
2018-09-04T23:33:38.342Z,21.82
2018-09-04T23:36:06.026Z,21.78
2018-09-04T23:38:33.543Z,21.81
2018-09-04T23:41:01.104Z,21.85
2018-09-04T23:43:28.692Z,21.87
2018-09-04T23:45:56.210Z,21.81
2018-09-04T23:48:23.756Z,21.83
2018-09-04T23:50:51.451Z,21.72
2018-09-04T23:53:19.028Z,21.76
2018-09-04T23:55:46.620Z,21.72
2018-09-04T23:58:14.247Z,21.73
